sensor_id;sensor_type;location;lat;lon;timestamp;pressure;altitude;pressure_sealevel;temperature;humidity
5283;BME280;15376;48.540;9.268;2022-09-09T00:00:54;97153.34;;;12.51;100.00
5283;BME280;15376;48.540;9.268;2022-09-09T00:06:17;97158.69;;;12.38;100.00
5283;BME280;15376;48.540;9.268;2022-09-09T00:09:00;97153.34;;;12.38;100.00
5283;BME280;15376;48.540;9.268;2022-09-09T00:11:36;97133.06;;;12.37;100.00
5283;BME280;15376;48.540;9.268;2022-09-09T00:14:21;97148.63;;;12.40;100.00
5283;BME280;15376;48.540;9.268;2022-09-09T00:16:54;97145.97;;;12.46;100.00
5283;BME280;15376;48.540;9.268;2022-09-09T00:19:34;97121.19;;;12.32;100.00
5283;BME280;15376;48.540;9.268;2022-09-09T00:22:18;97142.50;;;12.59;100.00
5283;BME280;15376;48.540;9.268;2022-09-09T00:24:52;97128.16;;;12.60;100.00
5283;BME280;15376;48.540;9.268;2022-09-09T00:27:26;97137.41;;;12.64;100.00
5283;BME280;15376;48.540;9.268;2022-09-09T00:29:59;97131.84;;;12.46;100.00
5283;BME280;15376;48.540;9.268;2022-09-09T00:32:30;97124.88;;;12.45;100.00
5283;BME280;15376;48.540;9.268;2022-09-09T00:35:04;97132.66;;;12.46;100.00
5283;BME280;15376;48.540;9.268;2022-09-09T00:37:37;97131.44;;;12.55;100.00
5283;BME280;15376;48.540;9.268;2022-09-09T00:40:16;97146.19;;;12.51;100.00
5283;BME280;15376;48.540;9.268;2022-09-09T00:42:43;97139.81;;;12.46;100.00
5283;BME280;15376;48.540;9.268;2022-09-09T00:45:34;97116.66;;;12.26;100.00
5283;BME280;15376;48.540;9.268;2022-09-09T00:48:10;97143.91;;;12.28;100.00
5283;BME280;15376;48.540;9.268;2022-09-09T00:50:50;97126.50;;;12.26;100.00
5283;BME280;15376;48.540;9.268;2022-09-09T00:53:41;97149.88;;;12.37;100.00
5283;BME280;15376;48.540;9.268;2022-09-09T00:56:20;97147.00;;;12.32;100.00
5283;BME280;15376;48.540;9.268;2022-09-09T00:59:07;97144.75;;;12.35;100.00
5283;BME280;15376;48.540;9.268;2022-09-09T01:01:37;97148.63;;;12.26;100.00
5283;BME280;15376;48.540;9.268;2022-09-09T01:04:09;97139.81;;;12.26;100.00
5283;BME280;15376;48.540;9.268;2022-09-09T01:06:41;97142.88;;;12.43;100.00
5283;BME280;15376;48.540;9.268;2022-09-09T01:12:23;97141.69;;;12.39;100.00
5283;BME280;15376;48.540;9.268;2022-09-09T01:14:52;97143.72;;;12.30;100.00
5283;BME280;15376;48.540;9.268;2022-09-09T01:17:23;97096.94;;;12.01;100.00
5283;BME280;15376;48.540;9.268;2022-09-09T01:20:02;97140.03;;;12.31;100.00
5283;BME280;15376;48.540;9.268;2022-09-09T01:27:46;97140.00;;;12.24;100.00
5283;BME280;15376;48.540;9.268;2022-09-09T01:30:16;97145.53;;;12.23;100.00
5283;BME280;15376;48.540;9.268;2022-09-09T01:32:44;97152.69;;;12.16;100.00
5283;BME280;15376;48.540;9.268;2022-09-09T01:35:18;97119.88;;;11.95;100.00
5283;BME280;15376;48.540;9.268;2022-09-09T01:37:48;97133.81;;;11.97;100.00
5283;BME280;15376;48.540;9.268;2022-09-09T01:40:13;97128.25;;;11.92;100.00
5283;BME280;15376;48.540;9.268;2022-09-09T01:42:38;97129.59;;;11.75;100.00
5283;BME280;15376;48.540;9.268;2022-09-09T01:45:04;97147.94;;;11.98;100.00
5283;BME280;15376;48.540;9.268;2022-09-09T01:47:30;97149.34;;;12.00;100.00
5283;BME280;15376;48.540;9.268;2022-09-09T01:49:55;97128.47;;;11.91;100.00
5283;BME280;15376;48.540;9.268;2022-09-09T01:52:21;97151.41;;;11.92;100.00
5283;BME280;15376;48.540;9.268;2022-09-09T01:54:46;97154.06;;;11.92;100.00
5283;BME280;15376;48.540;9.268;2022-09-09T01:57:26;97146.56;;;11.74;100.00
5283;BME280;15376;48.540;9.268;2022-09-09T02:00:09;97148.09;;;11.83;100.00
5283;BME280;15376;48.540;9.268;2022-09-09T02:02:41;97169.75;;;11.80;100.00
5283;BME280;15376;48.540;9.268;2022-09-09T02:08:33;97175.13;;;11.87;100.00
5283;BME280;15376;48.540;9.268;2022-09-09T02:11:09;97171.28;;;11.96;100.00
5283;BME280;15376;48.540;9.268;2022-09-09T02:13:37;97177.78;;;11.87;100.00
5283;BME280;15376;48.540;9.268;2022-09-09T02:16:22;97164.69;;;11.92;100.00
5283;BME280;15376;48.540;9.268;2022-09-09T02:19:06;97162.41;;;11.82;100.00
5283;BME280;15376;48.540;9.268;2022-09-09T02:21:34;97153.59;;;11.82;100.00
5283;BME280;15376;48.540;9.268;2022-09-09T02:24:04;97155.53;;;11.66;100.00
5283;BME280;15376;48.540;9.268;2022-09-09T02:26:31;97167.94;;;11.46;100.00
5283;BME280;15376;48.540;9.268;2022-09-09T02:29:01;97163.13;;;11.28;100.00
5283;BME280;15376;48.540;9.268;2022-09-09T02:31:28;97169.41;;;11.21;100.00
5283;BME280;15376;48.540;9.268;2022-09-09T02:33:59;97142.81;;;11.21;100.00
5283;BME280;15376;48.540;9.268;2022-09-09T02:36:29;97154.31;;;11.28;100.00
5283;BME280;15376;48.540;9.268;2022-09-09T02:38:56;97162.06;;;11.23;100.00
5283;BME280;15376;48.540;9.268;2022-09-09T02:41:27;97168.28;;;11.36;100.00
5283;BME280;15376;48.540;9.268;2022-09-09T02:43:54;97169.34;;;11.77;100.00
5283;BME280;15376;48.540;9.268;2022-09-09T02:46:45;97172.22;;;11.82;100.00
5283;BME280;15376;48.540;9.268;2022-09-09T02:52:01;97181.09;;;11.61;100.00
5283;BME280;15376;48.540;9.268;2022-09-09T02:54:30;97177.00;;;11.65;100.00
5283;BME280;15376;48.540;9.268;2022-09-09T02:57:10;97172.03;;;11.83;100.00
5283;BME280;15376;48.540;9.268;2022-09-09T02:59:38;97171.88;;;11.98;100.00
5283;BME280;15376;48.540;9.268;2022-09-09T03:02:04;97165.56;;;12.12;100.00
5283;BME280;15376;48.540;9.268;2022-09-09T03:04:30;97160.50;;;12.24;100.00
5283;BME280;15376;48.540;9.268;2022-09-09T03:06:56;97171.34;;;12.29;100.00
5283;BME280;15376;48.540;9.268;2022-09-09T03:09:22;97167.44;;;12.25;100.00
5283;BME280;15376;48.540;9.268;2022-09-09T03:11:47;97170.31;;;12.23;100.00
5283;BME280;15376;48.540;9.268;2022-09-09T03:14:14;97157.81;;;12.24;100.00
5283;BME280;15376;48.540;9.268;2022-09-09T03:16:40;97166.63;;;12.24;100.00
5283;BME280;15376;48.540;9.268;2022-09-09T03:19:07;97159.69;;;12.30;100.00
5283;BME280;15376;48.540;9.268;2022-09-09T03:21:32;97165.44;;;12.33;100.00
5283;BME280;15376;48.540;9.268;2022-09-09T03:23:58;97173.66;;;12.52;100.00
5283;BME280;15376;48.540;9.268;2022-09-09T03:26:23;97171.78;;;12.46;100.00
5283;BME280;15376;48.540;9.268;2022-09-09T03:28:49;97181.19;;;12.42;100.00
5283;BME280;15376;48.540;9.268;2022-09-09T03:31:17;97176.88;;;12.41;100.00
5283;BME280;15376;48.540;9.268;2022-09-09T03:33:44;97177.72;;;12.48;100.00
5283;BME280;15376;48.540;9.268;2022-09-09T03:36:10;97196.22;;;12.69;100.00
5283;BME280;15376;48.540;9.268;2022-09-09T03:38:35;97183.91;;;12.68;100.00
5283;BME280;15376;48.540;9.268;2022-09-09T03:41:01;97188.81;;;12.84;100.00
5283;BME280;15376;48.540;9.268;2022-09-09T03:43:28;97193.34;;;12.90;100.00
5283;BME280;15376;48.540;9.268;2022-09-09T03:45:54;97183.50;;;12.97;100.00
5283;BME280;15376;48.540;9.268;2022-09-09T03:48:23;97169.97;;;12.86;100.00
5283;BME280;15376;48.540;9.268;2022-09-09T03:50:51;97179.63;;;12.93;100.00
5283;BME280;15376;48.540;9.268;2022-09-09T03:53:18;97184.75;;;12.95;100.00
5283;BME280;15376;48.540;9.268;2022-09-09T03:55:49;97176.94;;;12.93;100.00
5283;BME280;15376;48.540;9.268;2022-09-09T03:58:15;97174.91;;;12.95;100.00
5283;BME280;15376;48.540;9.268;2022-09-09T04:00:41;97164.66;;;12.99;100.00
5283;BME280;15376;48.540;9.268;2022-09-09T04:03:10;97157.06;;;13.02;100.00
5283;BME280;15376;48.540;9.268;2022-09-09T04:05:36;97153.56;;;13.02;100.00
5283;BME280;15376;48.540;9.268;2022-09-09T04:08:08;97164.84;;;13.04;100.00
5283;BME280;15376;48.540;9.268;2022-09-09T04:10:34;97175.94;;;13.01;100.00
5283;BME280;15376;48.540;9.268;2022-09-09T04:13:03;97171.22;;;12.96;100.00
5283;BME280;15376;48.540;9.268;2022-09-09T04:15:29;97169.56;;;12.89;100.00
5283;BME280;15376;48.540;9.268;2022-09-09T04:17:55;97152.75;;;12.82;100.00
5283;BME280;15376;48.540;9.268;2022-09-09T04:20:20;97145.56;;;12.95;100.00
5283;BME280;15376;48.540;9.268;2022-09-09T04:22:47;97155.63;;;13.07;100.00
5283;BME280;15376;48.540;9.268;2022-09-09T04:25:12;97140.03;;;12.90;100.00
5283;BME280;15376;48.540;9.268;2022-09-09T04:27:38;97160.53;;;12.83;100.00
5283;BME280;15376;48.540;9.268;2022-09-09T04:30:03;97148.03;;;12.57;100.00
5283;BME280;15376;48.540;9.268;2022-09-09T04:32:29;97152.75;;;12.62;100.00
5283;BME280;15376;48.540;9.268;2022-09-09T04:34:55;97140.25;;;12.62;100.00
5283;BME280;15376;48.540;9.268;2022-09-09T04:37:20;97151.94;;;12.68;100.00
5283;BME280;15376;48.540;9.268;2022-09-09T04:39:45;97161.56;;;12.56;100.00
5283;BME280;15376;48.540;9.268;2022-09-09T04:42:11;97160.53;;;12.50;100.00
5283;BME280;15376;48.540;9.268;2022-09-09T04:44:36;97155.59;;;12.47;100.00
5283;BME280;15376;48.540;9.268;2022-09-09T04:47:02;97163.63;;;12.60;100.00
5283;BME280;15376;48.540;9.268;2022-09-09T04:49:27;97150.09;;;12.55;100.00
5283;BME280;15376;48.540;9.268;2022-09-09T04:51:52;97163.84;;;12.72;100.00
5283;BME280;15376;48.540;9.268;2022-09-09T04:54:18;97151.94;;;12.68;100.00
5283;BME280;15376;48.540;9.268;2022-09-09T04:56:44;97158.09;;;12.62;100.00
5283;BME280;15376;48.540;9.268;2022-09-09T04:59:09;97147.59;;;12.41;100.00
5283;BME280;15376;48.540;9.268;2022-09-09T05:01:35;97167.47;;;12.45;100.00
5283;BME280;15376;48.540;9.268;2022-09-09T05:04:01;97162.16;;;12.38;100.00
5283;BME280;15376;48.540;9.268;2022-09-09T05:06:27;97173.44;;;12.53;100.00
5283;BME280;15376;48.540;9.268;2022-09-09T05:08:57;97175.28;;;12.53;100.00
5283;BME280;15376;48.540;9.268;2022-09-09T05:11:31;97168.31;;;12.39;100.00
5283;BME280;15376;48.540;9.268;2022-09-09T05:13:57;97132.22;;;12.23;100.00
5283;BME280;15376;48.540;9.268;2022-09-09T05:16:23;97165.84;;;12.44;100.00
5283;BME280;15376;48.540;9.268;2022-09-09T05:18:49;97153.16;;;12.52;100.00
5283;BME280;15376;48.540;9.268;2022-09-09T05:21:17;97175.31;;;12.79;100.00
5283;BME280;15376;48.540;9.268;2022-09-09T05:23:44;97179.81;;;12.85;100.00
5283;BME280;15376;48.540;9.268;2022-09-09T05:26:13;97165.47;;;12.86;100.00
5283;BME280;15376;48.540;9.268;2022-09-09T05:28:39;97187.63;;;13.07;100.00
5283;BME280;15376;48.540;9.268;2022-09-09T05:31:07;97194.19;;;13.11;100.00
5283;BME280;15376;48.540;9.268;2022-09-09T05:33:34;97171.22;;;13.03;100.00
5283;BME280;15376;48.540;9.268;2022-09-09T05:36:05;97182.28;;;13.13;100.00
5283;BME280;15376;48.540;9.268;2022-09-09T05:38:32;97182.28;;;13.26;100.00
5283;BME280;15376;48.540;9.268;2022-09-09T05:41:00;97183.09;;;13.27;100.00
5283;BME280;15376;48.540;9.268;2022-09-09T05:43:26;97201.16;;;13.38;100.00
5283;BME280;15376;48.540;9.268;2022-09-09T05:46:00;97204.00;;;13.50;100.00
5283;BME280;15376;48.540;9.268;2022-09-09T05:48:31;97203.19;;;13.56;100.00
5283;BME280;15376;48.540;9.268;2022-09-09T05:50:57;97183.88;;;13.54;100.00
5283;BME280;15376;48.540;9.268;2022-09-09T05:53:23;97196.34;;;13.66;100.00
5283;BME280;15376;48.540;9.268;2022-09-09T05:55:48;97199.63;;;13.75;100.00
5283;BME280;15376;48.540;9.268;2022-09-09T05:58:14;97187.47;;;13.86;100.00
5283;BME280;15376;48.540;9.268;2022-09-09T06:00:40;97195.44;;;13.99;100.00
5283;BME280;15376;48.540;9.268;2022-09-09T06:03:05;97203.81;;;14.09;100.00
5283;BME280;15376;48.540;9.268;2022-09-09T06:05:31;97193.13;;;14.09;100.00
5283;BME280;15376;48.540;9.268;2022-09-09T06:07:56;97201.47;;;14.32;100.00
5283;BME280;15376;48.540;9.268;2022-09-09T06:10:22;97206.06;;;14.57;100.00
5283;BME280;15376;48.540;9.268;2022-09-09T06:12:47;97197.53;;;14.73;100.00
5283;BME280;15376;48.540;9.268;2022-09-09T06:15:13;97192.25;;;14.91;100.00
5283;BME280;15376;48.540;9.268;2022-09-09T06:17:38;97196.34;;;14.94;100.00
5283;BME280;15376;48.540;9.268;2022-09-09T06:20:04;97184.13;;;15.05;100.00
5283;BME280;15376;48.540;9.268;2022-09-09T06:22:30;97194.03;;;15.22;100.00
5283;BME280;15376;48.540;9.268;2022-09-09T06:24:55;97189.06;;;15.26;100.00
5283;BME280;15376;48.540;9.268;2022-09-09T06:27:20;97194.25;;;15.46;100.00
5283;BME280;15376;48.540;9.268;2022-09-09T06:29:46;97184.38;;;15.46;100.00
5283;BME280;15376;48.540;9.268;2022-09-09T06:32:11;97182.16;;;15.61;100.00
5283;BME280;15376;48.540;9.268;2022-09-09T06:34:36;97200.84;;;15.68;100.00
5283;BME280;15376;48.540;9.268;2022-09-09T06:37:02;97186.47;;;15.62;100.00
5283;BME280;15376;48.540;9.268;2022-09-09T06:39:28;97194.06;;;15.65;100.00
5283;BME280;15376;48.540;9.268;2022-09-09T06:41:53;97189.91;;;15.70;100.00
5283;BME280;15376;48.540;9.268;2022-09-09T06:44:19;97188.88;;;15.89;100.00
5283;BME280;15376;48.540;9.268;2022-09-09T06:46:45;97172.38;;;15.92;100.00
5283;BME280;15376;48.540;9.268;2022-09-09T06:49:13;97200.75;;;16.29;100.00
5283;BME280;15376;48.540;9.268;2022-09-09T06:51:38;97197.69;;;16.56;100.00
5283;BME280;15376;48.540;9.268;2022-09-09T06:54:08;97195.31;;;16.66;100.00
5283;BME280;15376;48.540;9.268;2022-09-09T06:56:36;97193.00;;;16.70;100.00
5283;BME280;15376;48.540;9.268;2022-09-09T06:59:03;97191.84;;;16.77;100.00
5283;BME280;15376;48.540;9.268;2022-09-09T07:01:32;97197.59;;;16.92;100.00
5283;BME280;15376;48.540;9.268;2022-09-09T07:03:58;97202.63;;;17.00;100.00
5283;BME280;15376;48.540;9.268;2022-09-09T07:06:32;97189.94;;;17.08;100.00
5283;BME280;15376;48.540;9.268;2022-09-09T07:09:00;97197.28;;;17.24;100.00
5283;BME280;15376;48.540;9.268;2022-09-09T07:11:28;97198.81;;;17.31;100.00
5283;BME280;15376;48.540;9.268;2022-09-09T07:13:55;97199.25;;;17.28;100.00
5283;BME280;15376;48.540;9.268;2022-09-09T07:16:22;97206.41;;;17.46;100.00
5283;BME280;15376;48.540;9.268;2022-09-09T07:18:50;97200.94;;;17.53;100.00
5283;BME280;15376;48.540;9.268;2022-09-09T07:21:16;97202.22;;;17.74;100.00
5283;BME280;15376;48.540;9.268;2022-09-09T07:23:42;97201.03;;;17.93;100.00
5283;BME280;15376;48.540;9.268;2022-09-09T07:26:13;97189.06;;;18.12;100.00
5283;BME280;15376;48.540;9.268;2022-09-09T07:28:39;97155.84;;;18.18;100.00
5283;BME280;15376;48.540;9.268;2022-09-09T07:31:05;97193.22;;;18.31;100.00
5283;BME280;15376;48.540;9.268;2022-09-09T07:33:32;97186.94;;;18.43;100.00
5283;BME280;15376;48.540;9.268;2022-09-09T07:36:05;97174.84;;;18.57;100.00
5283;BME280;15376;48.540;9.268;2022-09-09T07:38:30;97190.16;;;18.68;100.00
5283;BME280;15376;48.540;9.268;2022-09-09T07:41:06;97202.16;;;18.77;100.00
5283;BME280;15376;48.540;9.268;2022-09-09T07:43:33;97203.13;;;18.71;100.00
5283;BME280;15376;48.540;9.268;2022-09-09T07:45:59;97215.09;;;18.52;100.00
5283;BME280;15376;48.540;9.268;2022-09-09T07:48:27;97214.22;;;18.75;100.00
5283;BME280;15376;48.540;9.268;2022-09-09T07:50:52;97213.44;;;19.08;100.00
5283;BME280;15376;48.540;9.268;2022-09-09T07:53:18;97216.72;;;19.10;100.00
5283;BME280;15376;48.540;9.268;2022-09-09T07:55:45;97223.72;;;19.11;98.40
5283;BME280;15376;48.540;9.268;2022-09-09T07:58:13;97202.59;;;19.03;95.54
5283;BME280;15376;48.540;9.268;2022-09-09T08:00:38;97222.00;;;19.05;96.35
5283;BME280;15376;48.540;9.268;2022-09-09T08:03:09;97229.09;;;19.27;94.71
5283;BME280;15376;48.540;9.268;2022-09-09T08:05:34;97218.88;;;19.58;92.93
5283;BME280;15376;48.540;9.268;2022-09-09T08:08:00;97221.44;;;19.70;89.27
5283;BME280;15376;48.540;9.268;2022-09-09T08:10:25;97215.88;;;19.76;89.40
5283;BME280;15376;48.540;9.268;2022-09-09T08:12:51;97231.56;;;19.62;90.81
5283;BME280;15376;48.540;9.268;2022-09-09T08:15:17;97234.81;;;19.31;89.74
5283;BME280;15376;48.540;9.268;2022-09-09T08:17:43;97235.31;;;19.28;91.83
5283;BME280;15376;48.540;9.268;2022-09-09T08:20:09;97237.53;;;19.48;91.50
5283;BME280;15376;48.540;9.268;2022-09-09T08:22:34;97238.47;;;19.53;90.32
5283;BME280;15376;48.540;9.268;2022-09-09T08:24:59;97235.16;;;19.68;91.40
5283;BME280;15376;48.540;9.268;2022-09-09T08:27:25;97224.59;;;19.83;90.84
5283;BME280;15376;48.540;9.268;2022-09-09T08:29:50;97232.22;;;19.70;91.44
5283;BME280;15376;48.540;9.268;2022-09-09T08:32:16;97232.28;;;19.75;92.67
5283;BME280;15376;48.540;9.268;2022-09-09T08:34:42;97233.34;;;19.74;92.24
5283;BME280;15376;48.540;9.268;2022-09-09T08:37:07;97243.00;;;19.70;91.24
5283;BME280;15376;48.540;9.268;2022-09-09T08:39:32;97249.59;;;19.45;95.13
5283;BME280;15376;48.540;9.268;2022-09-09T08:42:23;97221.94;;;19.33;93.21
5283;BME280;15376;48.540;9.268;2022-09-09T08:48:11;97242.81;;;19.76;93.00
5283;BME280;15376;48.540;9.268;2022-09-09T08:50:38;97247.47;;;20.19;90.79
5283;BME280;15376;48.540;9.268;2022-09-09T08:55:44;97247.78;;;20.23;87.98
5283;BME280;15376;48.540;9.268;2022-09-09T09:09:32;97237.50;;;21.44;77.35
5283;BME280;15376;48.540;9.268;2022-09-09T09:12:02;97239.84;;;21.73;77.31
5283;BME280;15376;48.540;9.268;2022-09-09T09:14:34;97239.00;;;22.09;75.16
5283;BME280;15376;48.540;9.268;2022-09-09T09:19:33;97220.16;;;22.24;69.91
5283;BME280;15376;48.540;9.268;2022-09-09T09:22:05;97227.41;;;22.14;69.46
5283;BME280;15376;48.540;9.268;2022-09-09T09:24:50;97232.44;;;21.95;69.69
5283;BME280;15376;48.540;9.268;2022-09-09T09:27:31;97224.53;;;22.31;70.35
5283;BME280;15376;48.540;9.268;2022-09-09T09:29:59;97207.63;;;23.98;61.81
5283;BME280;15376;48.540;9.268;2022-09-09T09:32:28;97205.66;;;25.22;56.98
5283;BME280;15376;48.540;9.268;2022-09-09T09:34:58;97211.78;;;26.24;51.28
5283;BME280;15376;48.540;9.268;2022-09-09T09:37:30;97209.66;;;26.64;52.86
5283;BME280;15376;48.540;9.268;2022-09-09T09:40:08;97206.94;;;27.72;47.09
5283;BME280;15376;48.540;9.268;2022-09-09T09:42:34;97217.88;;;27.99;47.63
5283;BME280;15376;48.540;9.268;2022-09-09T09:45:20;97211.78;;;27.75;44.92
5283;BME280;15376;48.540;9.268;2022-09-09T09:48:08;97193.09;;;28.78;44.74
5283;BME280;15376;48.540;9.268;2022-09-09T09:50:33;97199.81;;;29.75;41.78
5283;BME280;15376;48.540;9.268;2022-09-09T09:53:03;97202.31;;;30.73;39.59
5283;BME280;15376;48.540;9.268;2022-09-09T09:55:34;97171.84;;;30.74;39.51
5283;BME280;15376;48.540;9.268;2022-09-09T09:58:02;97190.31;;;32.66;34.84
5283;BME280;15376;48.540;9.268;2022-09-09T10:00:28;97177.69;;;31.97;35.69
5283;BME280;15376;48.540;9.268;2022-09-09T10:02:54;97186.16;;;32.80;33.88
5283;BME280;15376;48.540;9.268;2022-09-09T10:05:26;97177.28;;;31.78;35.17
5283;BME280;15376;48.540;9.268;2022-09-09T10:13:39;97187.16;;;29.12;36.81
5283;BME280;15376;48.540;9.268;2022-09-09T10:16:24;97186.72;;;27.40;41.85
5283;BME280;15376;48.540;9.268;2022-09-09T10:22:28;97187.16;;;27.80;41.03
5283;BME280;15376;48.540;9.268;2022-09-09T10:32:41;97169.03;;;31.61;34.70
5283;BME280;15376;48.540;9.268;2022-09-09T10:35:12;97169.34;;;31.59;33.74
5283;BME280;15376;48.540;9.268;2022-09-09T10:38:12;97165.28;;;31.91;33.43
5283;BME280;15376;48.540;9.268;2022-09-09T10:41:13;97161.41;;;31.92;33.57
5283;BME280;15376;48.540;9.268;2022-09-09T10:44:14;97176.63;;;31.64;32.61
5283;BME280;15376;48.540;9.268;2022-09-09T10:52:09;97169.41;;;30.81;35.45
5283;BME280;15376;48.540;9.268;2022-09-09T10:57:46;97162.81;;;31.00;33.65
5283;BME280;15376;48.540;9.268;2022-09-09T11:00:42;97132.97;;;32.17;30.08
5283;BME280;15376;48.540;9.268;2022-09-09T11:03:26;97154.00;;;30.29;31.06
5283;BME280;15376;48.540;9.268;2022-09-09T11:06:13;97150.94;;;32.15;30.35
5283;BME280;15376;48.540;9.268;2022-09-09T11:08:39;97145.47;;;32.06;29.62
5283;BME280;15376;48.540;9.268;2022-09-09T11:11:19;97134.22;;;31.44;30.85
5283;BME280;15376;48.540;9.268;2022-09-09T11:16:30;97155.41;;;28.88;35.58
5283;BME280;15376;48.540;9.268;2022-09-09T11:19:55;97127.63;;;27.03;38.02
5283;BME280;15376;48.540;9.268;2022-09-09T11:21:59;97160.81;;;25.82;38.92
5283;BME280;15376;48.540;9.268;2022-09-09T11:24:31;97158.53;;;25.03;41.45
5283;BME280;15376;48.540;9.268;2022-09-09T11:30:13;97150.38;;;24.58;44.31
5283;BME280;15376;48.540;9.268;2022-09-09T11:32:55;97161.00;;;24.55;45.38
5283;BME280;15376;48.540;9.268;2022-09-09T11:40:43;97207.22;;;21.42;56.99
5283;BME280;15376;48.540;9.268;2022-09-09T11:43:12;97210.16;;;21.09;60.11
5283;BME280;15376;48.540;9.268;2022-09-09T11:45:41;97214.91;;;20.70;62.85
5283;BME280;15376;48.540;9.268;2022-09-09T11:48:23;97201.16;;;20.71;63.90
5283;BME280;15376;48.540;9.268;2022-09-09T11:51:09;97215.00;;;21.07;62.30
5283;BME280;15376;48.540;9.268;2022-09-09T11:53:53;97221.41;;;21.01;64.51
5283;BME280;15376;48.540;9.268;2022-09-09T11:59:38;97222.03;;;21.08;62.75
5283;BME280;15376;48.540;9.268;2022-09-09T12:01:45;97203.25;;;21.23;59.27
5283;BME280;15376;48.540;9.268;2022-09-09T12:04:28;97204.81;;;21.14;57.20
5283;BME280;15376;48.540;9.268;2022-09-09T12:07:30;97215.22;;;20.73;60.70
5283;BME280;15376;48.540;9.268;2022-09-09T12:10:04;97214.03;;;20.64;58.16
5283;BME280;15376;48.540;9.268;2022-09-09T12:12:34;97209.34;;;20.33;60.25
5283;BME280;15376;48.540;9.268;2022-09-09T12:15:27;97209.66;;;20.58;58.51
5283;BME280;15376;48.540;9.268;2022-09-09T12:17:56;97199.34;;;20.77;55.61
5283;BME280;15376;48.540;9.268;2022-09-09T12:20:26;97182.72;;;20.90;55.45
5283;BME280;15376;48.540;9.268;2022-09-09T12:23:13;97200.69;;;21.06;56.66
5283;BME280;15376;48.540;9.268;2022-09-09T12:33:52;97183.69;;;20.52;60.45
5283;BME280;15376;48.540;9.268;2022-09-09T12:36:24;97182.91;;;20.83;57.79
5283;BME280;15376;48.540;9.268;2022-09-09T12:38:53;97177.19;;;21.07;55.38
5283;BME280;15376;48.540;9.268;2022-09-09T12:41:24;97175.31;;;21.07;57.92
5283;BME280;15376;48.540;9.268;2022-09-09T12:43:50;97176.84;;;21.30;55.63
5283;BME280;15376;48.540;9.268;2022-09-09T12:48:56;97181.75;;;21.33;57.39
5283;BME280;15376;48.540;9.268;2022-09-09T12:51:26;97175.69;;;20.89;58.79
5283;BME280;15376;48.540;9.268;2022-09-09T12:53:54;97167.13;;;20.97;58.10
5283;BME280;15376;48.540;9.268;2022-09-09T12:56:24;97169.75;;;21.19;58.81
5283;BME280;15376;48.540;9.268;2022-09-09T12:58:55;97183.63;;;21.01;60.92
5283;BME280;15376;48.540;9.268;2022-09-09T13:03:48;97180.84;;;21.22;56.78
5283;BME280;15376;48.540;9.268;2022-09-09T13:06:28;97181.16;;;21.26;58.20
5283;BME280;15376;48.540;9.268;2022-09-09T13:08:54;97180.06;;;21.27;57.42
5283;BME280;15376;48.540;9.268;2022-09-09T13:11:44;97175.00;;;21.36;57.51
5283;BME280;15376;48.540;9.268;2022-09-09T13:14:38;97173.41;;;21.40;52.71
5283;BME280;15376;48.540;9.268;2022-09-09T13:17:05;97173.28;;;21.61;50.85
5283;BME280;15376;48.540;9.268;2022-09-09T13:19:43;97168.50;;;21.74;51.00
5283;BME280;15376;48.540;9.268;2022-09-09T13:25:18;97151.63;;;21.51;52.39
5283;BME280;15376;48.540;9.268;2022-09-09T13:28:03;97160.97;;;21.81;51.63
5283;BME280;15376;48.540;9.268;2022-09-09T13:30:32;97156.31;;;21.71;54.94
5283;BME280;15376;48.540;9.268;2022-09-09T13:35:27;97155.81;;;21.32;52.21
5283;BME280;15376;48.540;9.268;2022-09-09T13:37:53;97162.16;;;21.16;53.20
5283;BME280;15376;48.540;9.268;2022-09-09T13:40:21;97149.25;;;21.23;53.27
5283;BME280;15376;48.540;9.268;2022-09-09T13:42:47;97151.00;;;21.07;53.27
5283;BME280;15376;48.540;9.268;2022-09-09T13:45:21;97148.59;;;21.11;53.62
5283;BME280;15376;48.540;9.268;2022-09-09T13:47:47;97130.81;;;21.15;53.92
5283;BME280;15376;48.540;9.268;2022-09-09T13:50:35;97131.84;;;21.09;56.08
5283;BME280;15376;48.540;9.268;2022-09-09T13:53:01;97154.88;;;21.16;54.65
5283;BME280;15376;48.540;9.268;2022-09-09T13:55:28;97148.56;;;21.06;55.66
5283;BME280;15376;48.540;9.268;2022-09-09T13:58:01;97146.22;;;20.87;56.98
5283;BME280;15376;48.540;9.268;2022-09-09T14:00:29;97145.56;;;20.70;58.32
5283;BME280;15376;48.540;9.268;2022-09-09T14:02:55;97136.19;;;20.78;58.50
5283;BME280;15376;48.540;9.268;2022-09-09T14:05:21;97145.25;;;20.67;59.31
5283;BME280;15376;48.540;9.268;2022-09-09T14:07:48;97136.28;;;20.61;60.77
5283;BME280;15376;48.540;9.268;2022-09-09T14:10:14;97131.31;;;20.75;58.81
5283;BME280;15376;48.540;9.268;2022-09-09T14:12:39;97135.50;;;20.92;57.72
5283;BME280;15376;48.540;9.268;2022-09-09T14:15:07;97135.53;;;20.97;56.96
5283;BME280;15376;48.540;9.268;2022-09-09T14:17:33;97129.31;;;20.97;57.07
5283;BME280;15376;48.540;9.268;2022-09-09T14:20:00;97135.88;;;21.06;55.32
5283;BME280;15376;48.540;9.268;2022-09-09T14:22:25;97130.72;;;21.05;56.06
5283;BME280;15376;48.540;9.268;2022-09-09T14:24:51;97126.44;;;21.09;55.62
5283;BME280;15376;48.540;9.268;2022-09-09T14:27:17;97134.06;;;21.17;53.12
5283;BME280;15376;48.540;9.268;2022-09-09T14:29:44;97123.28;;;21.17;55.55
5283;BME280;15376;48.540;9.268;2022-09-09T14:32:10;97132.34;;;21.38;53.71
5283;BME280;15376;48.540;9.268;2022-09-09T14:34:35;97120.84;;;21.20;55.70
5283;BME280;15376;48.540;9.268;2022-09-09T14:37:01;97139.13;;;21.40;53.33
5283;BME280;15376;48.540;9.268;2022-09-09T14:39:26;97136.34;;;21.30;53.81
5283;BME280;15376;48.540;9.268;2022-09-09T14:41:51;97151.06;;;21.12;54.25
5283;BME280;15376;48.540;9.268;2022-09-09T14:44:17;97139.00;;;20.93;55.07
5283;BME280;15376;48.540;9.268;2022-09-09T14:46:43;97127.28;;;20.82;54.47
5283;BME280;15376;48.540;9.268;2022-09-09T14:49:09;97137.34;;;21.19;52.41
5283;BME280;15376;48.540;9.268;2022-09-09T14:51:35;97146.66;;;21.38;51.54
5283;BME280;15376;48.540;9.268;2022-09-09T14:54:02;97145.91;;;21.48;50.80
5283;BME280;15376;48.540;9.268;2022-09-09T14:56:29;97144.88;;;21.54;51.92